Time;durP1;ratioP1;P1;durP2;ratioP2;P2;SDS_P1;SDS_P2;PMS_P1;PMS_P2;Temp;Humidity;BMP_temperature;BMP_pressure;BME280_temperature;BME280_humidity;BME280_pressure;Samples;Min_cycle;Max_cycle;Signal;HPM_P1;HPM_P2
2022/02/05 00:00:36;;;;;;;14.65;7.07;;;;;;;-4.16;67.76;94931.06;5132301;27;20108;-68
2022/02/05 00:43:07;;;;;;;15.98;7.30;;;;;;;-4.56;68.30;94942.16;5132007;27;20487;-68
2022/02/05 00:45:36;;;;;;;13.18;7.35;;;;;;;-4.54;68.69;94935.34;5095387;28;20047;-68
2022/02/05 00:48:03;;;;;;;15.43;7.70;;;;;;;-4.52;69.57;94938.66;5102353;28;20046;-68
2022/02/05 00:50:31;;;;;;;15.80;8.30;;;;;;;-4.55;68.68;94941.25;5130326;28;20034;-68
2022/02/05 00:53:04;;;;;;;15.40;8.15;;;;;;;-4.63;68.78;94945.66;5130263;28;20058;-68
2022/02/05 00:55:34;;;;;;;15.75;8.68;;;;;;;-4.59;68.61;94944.75;5119631;27;20398;-68
2022/02/05 00:58:03;;;;;;;18.75;8.98;;;;;;;-4.58;68.64;94941.34;5109885;28;20039;-68
2022/02/05 01:00:29;;;;;;;16.40;9.00;;;;;;;-4.57;68.75;94932.03;5109834;28;20016;-68
2022/02/05 01:02:54;;;;;;;17.85;9.27;;;;;;;-4.61;68.64;94925.38;5109643;28;20447;-68
2022/02/05 01:05:20;;;;;;;17.00;8.77;;;;;;;-4.60;69.15;94924.50;5131603;28;20023;-68
2022/02/05 01:07:45;;;;;;;18.90;9.57;;;;;;;-4.57;69.38;94926.94;5096572;27;20031;-68
2022/02/05 01:10:11;;;;;;;19.13;9.15;;;;;;;-4.56;68.71;94918.50;5135453;27;20492;-68
2022/02/05 01:12:41;;;;;;;20.38;9.13;;;;;;;-4.61;68.67;94908.44;5134497;27;20138;-68
2022/02/05 01:15:06;;;;;;;29.45;13.23;;;;;;;-4.67;69.30;94906.06;5134084;27;20035;-68
2022/02/05 01:17:39;;;;;;;23.63;11.60;;;;;;;-4.67;69.06;94907.75;5135414;27;20023;-67
2022/02/05 01:22:50;;;;;;;24.88;11.18;;;;;;;-4.70;69.25;94898.53;5115420;27;20035;-68
2022/02/05 01:25:19;;;;;;;17.67;9.82;;;;;;;-4.75;68.93;94898.63;5115772;27;20044;-68
2022/02/05 01:27:51;;;;;;;22.88;9.82;;;;;;;-4.67;68.87;94912.84;5113443;28;20024;-68
2022/02/05 01:33:02;;;;;;;19.40;8.98;;;;;;;-4.75;69.11;94903.69;5114669;28;20061;-67
2022/02/05 01:49:17;;;;;;;20.52;9.60;;;;;;;-4.66;69.39;94899.28;5134934;27;20107;-68
2022/02/05 01:56:56;;;;;;;20.77;9.82;;;;;;;-4.72;69.32;94906.16;5115919;27;20039;-68
2022/02/05 02:04:57;;;;;;;21.63;9.77;;;;;;;-4.73;68.80;94896.06;5112988;28;20042;-67
2022/02/05 02:15:52;;;;;;;20.55;10.52;;;;;;;-4.74;69.51;94894.38;5093570;28;20039;-68
2022/02/05 02:31:35;;;;;;;22.98;10.18;;;;;;;-4.89;69.10;94904.84;5112433;28;20080;-67
2022/02/05 02:34:03;;;;;;;18.35;9.45;;;;;;;-4.88;68.87;94906.50;5126091;27;20130;-67
2022/02/05 02:36:34;;;;;;;28.55;10.02;;;;;;;-4.97;69.55;94879.69;5133803;27;20114;-67
2022/02/05 02:39:07;;;;;;;26.35;12.20;;;;;;;-4.79;69.63;94903.78;5132761;27;20137;-67
2022/02/05 02:41:51;;;;;;;30.25;10.82;;;;;;;-4.77;69.73;94902.88;5132746;27;20473;-67
2022/02/05 02:44:16;;;;;;;20.10;9.65;;;;;;;-4.74;70.04;94890.13;5122128;27;20382;-67
2022/02/05 02:46:41;;;;;;;20.63;9.90;;;;;;;-4.67;70.75;94893.38;5094980;28;20038;-67
2022/02/05 02:49:11;;;;;;;18.00;9.32;;;;;;;-4.54;70.37;94899.84;5111850;28;20032;-67
2022/02/05 02:59:48;;;;;;;27.10;12.75;;;;;;;-4.75;70.29;94908.75;5113247;28;20027;-67
2022/02/05 03:02:17;;;;;;;25.30;11.10;;;;;;;-4.68;69.89;94906.94;5096594;28;20112;-67
2022/02/05 03:04:42;;;;;;;23.58;9.45;;;;;;;-4.70;70.00;94907.84;5130709;27;20507;-67
2022/02/05 03:07:08;;;;;;;15.60;8.35;;;;;;;-4.64;69.78;94913.59;5130318;27;20039;-67
2022/02/05 03:09:33;;;;;;;21.88;9.48;;;;;;;-4.67;69.42;94913.66;5133563;27;20031;-67
2022/02/05 03:11:59;;;;;;;21.42;9.93;;;;;;;-4.65;69.52;94908.53;5104112;28;20398;-68
2022/02/05 03:14:24;;;;;;;19.88;9.35;;;;;;;-4.67;69.62;94918.72;5107938;28;20028;-67
2022/02/05 03:16:52;;;;;;;17.38;10.10;;;;;;;-4.70;69.01;94920.50;5092083;28;20062;-67
2022/02/05 03:19:18;;;;;;;21.73;9.88;;;;;;;-4.70;68.89;94907.84;5092390;28;20028;-67
2022/02/05 03:21:44;;;;;;;17.90;9.13;;;;;;;-4.72;68.90;94903.59;5090853;28;20039;-67
2022/02/05 03:24:09;;;;;;;20.02;9.18;;;;;;;-4.74;69.18;94907.88;5073655;28;20040;-67
2022/02/05 03:26:36;;;;;;;19.05;9.23;;;;;;;-4.70;69.45;94908.66;5112110;27;20035;-67
2022/02/05 03:29:04;;;;;;;21.15;9.95;;;;;;;-4.71;68.76;94919.66;5097701;27;20496;-67
2022/02/05 03:31:30;;;;;;;18.17;9.65;;;;;;;-4.80;69.23;94910.56;5132158;27;20023;-67
2022/02/05 03:33:55;;;;;;;24.40;9.93;;;;;;;-4.82;69.22;94909.78;5123614;27;20404;-67
2022/02/05 03:36:21;;;;;;;21.30;9.63;;;;;;;-4.79;69.03;94909.69;5112071;28;20024;-67
2022/02/05 03:38:46;;;;;;;21.52;10.27;;;;;;;-4.78;68.91;94915.59;5112201;28;20031;-67
2022/02/05 03:41:12;;;;;;;25.73;10.30;;;;;;;-4.87;69.20;94920.88;5112089;28;20032;-67
2022/02/05 03:43:37;;;;;;;22.95;9.80;;;;;;;-4.88;69.13;94924.25;5110797;28;20540;-67
2022/02/05 03:46:02;;;;;;;26.38;10.32;;;;;;;-4.88;69.17;94929.31;5129599;27;20489;-67
2022/02/05 03:48:28;;;;;;;27.63;11.40;;;;;;;-4.84;69.32;94919.09;5132575;27;20036;-66
2022/02/05 03:50:53;;;;;;;53.25;15.98;;;;;;;-4.84;69.14;94913.22;5131103;27;20471;-67
2022/02/05 03:53:19;;;;;;;46.10;15.48;;;;;;;-4.90;69.20;94928.50;5113664;27;20042;-67
2022/02/05 03:55:46;;;;;;;26.52;10.75;;;;;;;-4.90;68.96;94928.50;5096907;27;20038;-67
2022/02/05 03:58:11;;;;;;;24.52;10.63;;;;;;;-4.94;68.81;94925.22;5131029;27;20037;-67
2022/02/05 04:00:37;;;;;;;28.95;11.05;;;;;;;-4.95;68.81;94934.53;5113439;27;20035;-67
2022/02/05 04:03:03;;;;;;;28.90;10.77;;;;;;;-5.00;68.57;94931.25;5115010;27;20027;-67
2022/02/05 04:05:28;;;;;;;40.50;19.38;;;;;;;-5.14;69.15;94935.78;5096859;27;20020;-67
2022/02/05 04:07:55;;;;;;;33.67;15.40;;;;;;;-5.15;69.60;94931.59;5109086;28;20026;-68
2022/02/05 04:10:27;;;;;;;32.08;15.77;;;;;;;-5.16;69.27;94932.44;5110216;28;20040;-67
2022/02/05 04:18:21;;;;;;;22.98;10.02;;;;;;;-5.27;68.72;94937.69;5111805;28;20551;-67
2022/02/05 04:20:47;;;;;;;27.25;12.20;;;;;;;-5.35;68.75;94938.72;5117972;27;20070;-67
2022/02/05 04:23:13;;;;;;;24.45;11.77;;;;;;;-5.45;68.89;94928.78;5118517;27;20477;-67
2022/02/05 04:25:38;;;;;;;33.53;12.35;;;;;;;-5.41;69.11;94953.16;5111495;28;20039;-67
2022/02/05 04:28:03;;;;;;;33.55;13.27;;;;;;;-5.43;68.17;94947.31;5093059;28;20028;-67
2022/02/05 04:30:29;;;;;;;30.80;14.55;;;;;;;-5.53;68.73;94950.88;5110074;28;20027;-66
2022/02/05 04:32:54;;;;;;;30.70;15.98;;;;;;;-5.60;68.44;94949.28;5120329;28;20496;-67
2022/02/05 04:35:20;;;;;;;24.20;12.48;;;;;;;-5.65;68.95;94951.09;5111187;28;20463;-67
2022/02/05 04:37:49;;;;;;;25.27;12.93;;;;;;;-5.76;69.74;94938.63;5108953;28;20031;-67
2022/02/05 04:40:29;;;;;;;31.88;13.95;;;;;;;-5.67;69.55;94945.22;5111179;28;20027;-67
2022/02/05 04:56:20;;;;;;;20.80;10.13;;;;;;;-5.70;70.45;94948.66;5103542;28;20122;-67
2022/02/05 05:01:22;;;;;;;22.35;10.48;;;;;;;-5.73;70.58;94930.16;5113995;27;20039;-67
2022/02/05 05:04:06;;;;;;;26.45;10.55;;;;;;;-5.71;71.08;94941.94;5115289;28;20034;-67
2022/02/05 05:22:01;;;;;;;24.38;12.52;;;;;;;-5.33;71.40;94957.25;5119901;27;20142;-67
2022/02/05 05:24:27;;;;;;;20.85;10.13;;;;;;;-5.31;71.30;94951.31;5117888;27;20485;-66
2022/02/05 05:26:52;;;;;;;18.90;8.40;;;;;;;-5.27;70.87;94955.44;5134003;27;20088;-68
2022/02/05 05:29:18;;;;;;;17.88;8.43;;;;;;;-5.22;71.06;94957.88;5132208;27;20020;-67
2022/02/05 05:31:44;;;;;;;19.15;9.32;;;;;;;-5.13;72.91;94947.56;5117118;27;20023;-67
2022/02/05 05:34:09;;;;;;;20.25;9.15;;;;;;;-5.03;73.30;94950.75;5132559;27;20034;-67
2022/02/05 05:36:35;;;;;;;21.88;10.07;;;;;;;-4.90;72.80;94952.19;5129841;27;20448;-67
2022/02/05 05:39:02;;;;;;;18.00;8.50;;;;;;;-4.72;72.89;94953.50;5113136;27;20416;-67
2022/02/05 05:41:28;;;;;;;17.70;8.75;;;;;;;-4.62;71.43;94947.34;5096393;28;20068;-67
2022/02/05 05:44:18;;;;;;;19.25;9.30;;;;;;;-4.52;71.07;94928.50;5096218;28;20032;-67
2022/02/05 05:46:45;;;;;;;19.88;9.77;;;;;;;-4.33;70.57;94933.19;5112527;28;20092;-67
2022/02/05 05:49:17;;;;;;;23.77;9.15;;;;;;;-4.20;69.55;94942.19;5128217;27;20088;-67
2022/02/05 05:51:44;;;;;;;;;;;;;;;-4.10;69.25;94945.31;5133582;27;20528;-67
2022/02/05 05:54:10;;;;;;;18.23;8.27;;;;;;;-4.01;68.99;94947.66;5122820;27;19916;-67
2022/02/05 05:56:35;;;;;;;18.25;9.25;;;;;;;-3.95;68.91;94946.66;5100729;28;20035;-67
2022/02/05 05:59:01;;;;;;;22.33;10.13;;;;;;;-3.94;68.66;94935.63;5115753;27;20049;-67
2022/02/05 06:01:27;;;;;;;23.08;10.30;;;;;;;-3.85;67.93;94943.84;5122431;27;20031;-68
2022/02/05 06:03:52;;;;;;;25.25;10.38;;;;;;;-3.81;68.25;94962.41;5095552;28;20036;-67
2022/02/05 06:06:18;;;;;;;28.83;13.82;;;;;;;-3.84;67.71;94965.00;5114015;28;20081;-67
2022/02/05 06:08:43;;;;;;;77.45;33.83;;;;;;;-3.92;67.13;94975.34;5129268;27;20480;-67
2022/02/05 06:11:08;;;;;;;74.40;34.97;;;;;;;-3.94;66.34;94983.88;5115943;27;20027;-67
2022/02/05 06:13:35;;;;;;;77.90;34.85;;;;;;;-3.99;66.22;94990.75;5115928;27;20027;-67
2022/02/05 06:16:04;;;;;;;71.85;32.78;;;;;;;-4.02;66.64;94988.28;5132840;27;20035;-67
2022/02/05 06:18:29;;;;;;;81.80;34.88;;;;;;;-3.96;66.01;94983.06;5112758;27;20127;-67
2022/02/05 06:20:55;;;;;;;80.97;36.10;;;;;;;-4.01;66.75;94980.66;5114599;27;20504;-67
2022/02/05 06:23:20;;;;;;;81.68;37.40;;;;;;;-3.99;65.95;94983.13;5113437;28;20504;-67
2022/02/05 06:25:45;;;;;;;84.18;42.08;;;;;;;-4.10;65.74;94980.84;5112347;28;20393;-67
2022/02/05 06:28:14;;;;;;;91.68;47.35;;;;;;;-4.18;65.13;94977.66;5096166;28;20481;-67
2022/02/05 06:30:40;;;;;;;95.35;41.70;;;;;;;-4.30;64.72;94994.00;5113416;27;20034;-67
2022/02/05 06:33:05;;;;;;;114.07;50.33;;;;;;;-4.49;64.79;94991.84;5112138;28;20040;-67
2022/02/05 06:35:30;;;;;;;95.10;41.90;;;;;;;-4.49;64.80;94994.38;5092592;28;20040;-67
2022/02/05 06:37:56;;;;;;;91.53;39.55;;;;;;;-4.51;65.46;95001.22;5092731;28;20040;-67
2022/02/05 06:40:21;;;;;;;75.53;37.75;;;;;;;-4.56;65.26;94997.94;5108730;28;20029;-67
2022/02/05 06:42:47;;;;;;;88.80;39.20;;;;;;;-4.54;65.76;94998.75;5098507;27;20066;-67
2022/02/05 06:45:14;;;;;;;71.38;35.40;;;;;;;-4.56;66.02;94994.56;5111914;28;20032;-67
2022/02/05 06:47:39;;;;;;;81.00;38.85;;;;;;;-4.56;66.05;94997.94;5112180;28;20024;-67
2022/02/05 06:50:05;;;;;;;104.10;48.97;;;;;;;-4.56;65.99;94992.84;5117521;27;20507;-67
2022/02/05 06:52:30;;;;;;;106.20;52.78;;;;;;;-4.59;66.52;95003.06;5132327;27;20111;-67
2022/02/05 06:54:56;;;;;;;104.53;49.72;;;;;;;-4.69;65.92;95001.59;5115347;27;20027;-67
2022/02/05 06:57:21;;;;;;;110.13;50.67;;;;;;;-4.73;66.80;95010.97;5132183;27;20027;-67
2022/02/05 06:59:46;;;;;;;105.55;50.40;;;;;;;-4.75;66.90;95005.09;5132321;27;20565;-66
2022/02/05 07:02:12;;;;;;;96.00;47.80;;;;;;;-4.84;67.34;94996.84;5130087;27;20035;-66
2022/02/05 07:04:37;;;;;;;94.82;48.00;;;;;;;-4.75;67.22;95004.25;5133145;27;20080;-67
2022/02/05 07:07:03;;;;;;;99.50;48.28;;;;;;;-4.72;66.81;95027.00;5114578;27;20087;-66
2022/02/05 07:09:29;;;;;;;121.63;52.17;;;;;;;-4.67;67.16;95015.06;5127753;27;20081;-67
2022/02/05 07:11:59;;;;;;;127.70;54.88;;;;;;;-4.68;67.40;95010.03;5110842;28;20046;-67
2022/02/05 07:14:29;;;;;;;129.43;53.20;;;;;;;-4.61;67.30;95004.78;5111650;28;20101;-67
2022/02/05 07:17:02;;;;;;;133.48;57.38;;;;;;;-4.56;67.52;95003.00;5099033;27;20420;-67
2022/02/05 07:19:43;;;;;;;126.82;54.60;;;;;;;-4.42;67.59;94991.72;5093130;27;20114;-67
2022/02/05 07:22:09;;;;;;;148.43;58.17;;;;;;;-4.34;67.53;95003.38;5100456;28;20031;-67
2022/02/05 07:29:44;;;;;;;155.80;59.97;;;;;;;-3.85;66.33;94993.78;5107864;28;20035;-68
2022/02/05 07:32:09;;;;;;;149.20;61.65;;;;;;;-3.69;66.23;94999.34;5092422;27;20024;-68
2022/02/05 07:34:37;;;;;;;159.75;60.08;;;;;;;-3.45;65.93;94996.19;5090208;28;20036;-68
2022/02/05 07:37:04;;;;;;;137.32;56.30;;;;;;;-3.45;66.15;94975.03;5106153;28;20077;-69
2022/02/05 07:39:38;;;;;;;135.75;52.20;;;;;;;-3.13;65.92;94991.13;5129221;27;20039;-68
2022/02/05 07:42:04;;;;;;;114.38;47.45;;;;;;;-2.81;64.94;94992.81;5080922;28;20062;-68
2022/02/05 07:44:29;;;;;;;113.03;48.80;;;;;;;-2.56;64.41;95003.13;5073310;28;20111;-68
2022/02/05 07:46:54;;;;;;;86.30;39.55;;;;;;;-1.94;62.35;95002.94;5103168;28;20040;-68
2022/02/05 07:49:22;;;;;;;75.18;38.80;;;;;;;-1.40;60.12;95009.66;5103342;27;20554;-67
2022/02/05 07:51:47;;;;;;;85.30;40.67;;;;;;;-0.82;58.71;95011.13;5095401;28;20036;-67
2022/02/05 07:54:13;;;;;;;90.22;42.38;;;;;;;-0.58;57.83;95011.97;5112299;27;20047;-67
2022/02/05 07:56:43;;;;;;;91.30;42.80;;;;;;;-0.23;57.00;95013.22;5096601;27;20024;-67
2022/02/05 07:59:09;;;;;;;105.07;46.85;;;;;;;0.12;56.04;95013.59;5122295;27;20027;-67
2022/02/05 08:01:35;;;;;;;100.63;48.40;;;;;;;0.49;54.92;95002.75;5080037;28;20483;-68
2022/02/05 08:04:00;;;;;;;98.75;46.63;;;;;;;0.73;54.56;95018.81;5089532;28;20432;-67
2022/02/05 08:06:26;;;;;;;96.43;46.72;;;;;;;0.97;53.73;95009.28;5098981;28;20032;-67
2022/02/05 08:08:55;;;;;;;92.53;43.55;;;;;;;1.30;53.42;95018.97;5093267;28;20031;-67
2022/02/05 08:11:23;;;;;;;83.45;40.90;;;;;;;1.48;52.98;95022.47;5103174;28;20115;-68
2022/02/05 08:13:51;;;;;;;91.38;43.20;;;;;;;1.49;53.54;95024.97;5090481;28;20028;-68
2022/02/05 08:18:48;;;;;;;85.22;41.13;;;;;;;1.46;51.96;95026.84;5109733;28;20039;-68
2022/02/05 08:21:14;;;;;;;77.20;41.15;;;;;;;1.48;52.12;95032.72;5099842;28;20035;-68
2022/02/05 08:23:39;;;;;;;80.10;42.45;;;;;;;1.45;52.60;95025.16;5093274;28;20040;-67
2022/02/05 08:26:05;;;;;;;69.38;38.03;;;;;;;1.22;52.57;95011.63;5111822;27;20031;-67
2022/02/05 08:28:31;;;;;;;65.53;36.47;;;;;;;1.19;53.31;95004.09;5096199;27;20468;-67
2022/02/05 08:30:56;;;;;;;72.68;36.22;;;;;;;1.15;52.88;95005.13;5104619;28;20042;-68
2022/02/05 08:33:22;;;;;;;73.15;35.63;;;;;;;1.03;53.47;94998.81;5108588;28;20027;-67
2022/02/05 08:35:51;;;;;;;62.92;33.35;;;;;;;0.98;52.93;94998.16;5110175;28;20046;-67
2022/02/05 08:38:19;;;;;;;64.10;35.42;;;;;;;1.01;53.11;94998.03;5093202;28;20081;-67
2022/02/05 08:40:45;;;;;;;74.85;35.88;;;;;;;0.97;55.24;94990.53;5083099;28;20477;-70
2022/02/05 08:43:10;;;;;;;69.32;36.55;;;;;;;1.09;54.21;94997.72;5105074;28;20108;-70
2022/02/05 08:45:37;;;;;;;72.93;38.05;;;;;;;1.21;53.85;94994.63;5086183;28;20092;-69
2022/02/05 08:48:02;;;;;;;64.47;34.53;;;;;;;1.22;52.78;94986.03;5088738;28;20024;-69
2022/02/05 08:50:28;;;;;;;66.30;36.28;;;;;;;1.27;52.93;94993.53;5124552;28;20440;-69
2022/02/05 08:52:55;;;;;;;64.05;33.63;;;;;;;1.33;52.89;94991.50;5092501;28;20032;-73
2022/02/05 08:55:21;;;;;;;116.38;50.20;;;;;;;1.47;53.33;94993.47;5105910;28;20102;-70
2022/02/05 08:57:46;;;;;;;95.47;43.75;;;;;;;1.54;53.47;94991.47;5108252;28;20105;-68
2022/02/05 09:00:15;;;;;;;75.05;43.08;;;;;;;1.60;53.94;94990.38;5106218;28;20040;-68
2022/02/05 09:02:59;;;;;;;80.40;41.92;;;;;;;1.72;53.41;94993.19;5094559;28;20039;-69
2022/02/05 09:07:57;;;;;;;106.90;52.63;;;;;;;1.83;53.53;94994.44;5109129;28;20042;-68
2022/02/05 09:15:34;;;;;;;67.35;33.53;;;;;;;2.12;52.71;95008.50;5108179;28;20032;-69
2022/02/05 09:17:59;;;;;;;48.53;27.23;;;;;;;2.20;51.33;95007.22;5092031;28;20469;-69
2022/02/05 09:20:26;;;;;;;52.63;28.60;;;;;;;2.28;50.87;95013.72;5093863;28;20053;-67
2022/02/05 09:22:54;;;;;;;47.35;25.85;;;;;;;2.41;49.68;95014.78;5090153;28;20437;-68
2022/02/05 09:25:21;;;;;;;37.90;22.48;;;;;;;2.51;49.94;95012.59;5109860;28;20472;-67
2022/02/05 09:27:47;;;;;;;38.85;21.33;;;;;;;2.62;47.99;95008.66;5090918;28;20512;-67
2022/02/05 09:30:16;;;;;;;47.40;23.30;;;;;;;2.60;47.93;94997.63;5088485;28;20040;-66
2022/02/05 09:32:41;;;;;;;39.92;21.90;;;;;;;2.62;47.26;94995.81;5087311;28;20031;-66
2022/02/05 09:35:07;;;;;;;37.17;21.60;;;;;;;2.67;48.08;94987.88;5112392;28;20402;-67
2022/02/05 09:37:34;;;;;;;44.28;24.27;;;;;;;2.64;48.14;94988.03;5111530;28;20071;-67
2022/02/05 09:39:59;;;;;;;46.80;25.13;;;;;;;2.65;49.23;94987.16;5108578;28;20034;-68
2022/02/05 09:42:25;;;;;;;38.97;22.92;;;;;;;2.59;48.13;94979.72;5113398;28;20421;-68
2022/02/05 09:44:50;;;;;;;47.60;24.80;;;;;;;2.67;48.78;94987.88;5112712;28;20405;-68
2022/02/05 09:47:16;;;;;;;41.72;20.90;;;;;;;2.71;48.93;94986.00;5113296;27;20034;-68
2022/02/05 09:49:43;;;;;;;33.58;20.17;;;;;;;2.74;48.89;94991.81;5110295;28;20031;-69
2022/02/05 09:52:12;;;;;;;37.25;21.33;;;;;;;2.78;49.06;94983.03;5112431;28;20088;-69
2022/02/05 09:54:39;;;;;;;31.30;20.33;;;;;;;2.88;49.02;94986.00;5112642;27;20472;-68
2022/02/05 09:57:05;;;;;;;36.67;21.40;;;;;;;2.86;49.27;94987.81;5095153;28;20046;-68
2022/02/05 09:59:39;;;;;;;36.47;19.90;;;;;;;2.97;49.08;94972.69;5110529;28;20108;-68
2022/02/05 10:02:36;;;;;;;30.65;19.08;;;;;;;3.05;47.83;94960.31;5109451;28;20110;-68
2022/02/05 10:05:08;;;;;;;30.73;18.40;;;;;;;3.18;48.48;94954.56;5102827;28;20064;-69
2022/02/05 10:07:34;;;;;;;34.80;19.67;;;;;;;3.19;48.60;94946.75;5105483;28;20031;-69
2022/02/05 10:10:02;;;;;;;36.05;22.25;;;;;;;3.32;48.73;94949.53;5094545;28;20031;-68
2022/02/05 10:12:27;;;;;;;45.05;23.98;;;;;;;3.45;48.35;94954.84;5111315;28;20027;-68
2022/02/05 10:14:55;;;;;;;38.13;21.27;;;;;;;3.42;48.15;94952.44;5109455;28;20039;-68
2022/02/05 10:17:43;;;;;;;30.58;20.05;;;;;;;3.46;47.80;94957.34;5091578;28;20031;-68
2022/02/05 10:20:11;;;;;;;28.77;17.58;;;;;;;3.48;48.35;94952.09;5109481;27;20039;-70
2022/02/05 10:22:49;;;;;;;30.42;18.40;;;;;;;3.43;47.52;94942.09;5106410;27;20028;-69
2022/02/05 10:25:19;;;;;;;27.60;15.68;;;;;;;3.46;47.52;94938.53;5100450;28;20058;-68
2022/02/05 10:27:46;;;;;;;28.30;14.32;;;;;;;3.46;47.10;94939.38;5110020;28;20312;-69
2022/02/05 10:30:24;;;;;;;23.92;14.82;;;;;;;3.55;46.96;94944.00;5092655;28;20493;-69
2022/02/05 10:33:16;;;;;;;25.17;14.25;;;;;;;3.57;47.23;94949.06;5108981;27;20027;-68
2022/02/05 10:36:13;;;;;;;23.02;14.73;;;;;;;3.46;46.87;94944.50;5113570;27;20038;-68
2022/02/05 10:43:57;;;;;;;28.30;15.18;;;;;;;3.64;47.47;94941.84;5091360;28;20086;-70
2022/02/05 10:46:22;;;;;;;26.02;16.73;;;;;;;3.65;47.78;94939.22;5091975;28;20440;-69
2022/02/05 10:48:48;;;;;;;27.85;15.63;;;;;;;3.70;47.12;94944.09;5092453;28;20130;-69
2022/02/05 10:51:14;;;;;;;24.70;16.15;;;;;;;3.74;48.33;94937.88;5109404;28;20034;-69
2022/02/05 10:54:01;;;;;;;24.27;15.55;;;;;;;3.83;47.66;94932.25;5107741;28;20023;-69
2022/02/05 10:56:34;;;;;;;29.60;15.75;;;;;;;3.90;46.64;94931.00;5111294;28;20047;-70
2022/02/05 11:07:06;;;;;;;28.08;14.48;;;;;;;3.98;46.61;94926.28;5117559;27;20178;-69
2022/02/05 11:09:32;;;;;;;22.30;13.77;;;;;;;3.97;46.96;94913.50;5098913;28;20118;-69
2022/02/05 11:15:07;;;;;;;21.98;13.52;;;;;;;4.19;46.63;94918.28;5096871;28;20031;-69
2022/02/05 11:20:21;;;;;;;26.80;14.98;;;;;;;4.40;46.17;94906.78;5103955;28;20134;-69
2022/02/05 11:22:49;;;;;;;27.30;14.63;;;;;;;4.54;45.33;94902.56;5073608;28;20032;-70
2022/02/05 11:25:15;;;;;;;22.33;15.50;;;;;;;4.63;45.42;94914.91;5090496;28;20059;-69
2022/02/05 11:27:44;;;;;;;26.23;16.00;;;;;;;4.65;44.87;94903.63;5115130;27;20035;-69
2022/02/05 11:30:22;;;;;;;24.05;14.45;;;;;;;4.77;44.61;94899.50;5097233;28;20035;-69
2022/02/05 11:32:50;;;;;;;23.75;15.65;;;;;;;4.79;44.81;94907.13;5125403;27;20401;-69
2022/02/05 11:35:28;;;;;;;27.65;16.52;;;;;;;4.87;45.30;94915.22;5109408;27;20040;-70
2022/02/05 11:38:03;;;;;;;30.48;19.45;;;;;;;4.95;45.73;94914.78;5098342;28;20104;-69
2022/02/05 11:40:45;;;;;;;30.02;18.77;;;;;;;5.03;45.58;94921.13;5101831;28;20509;-69
2022/02/05 11:43:24;;;;;;;30.50;18.95;;;;;;;5.04;45.12;94911.66;5095131;28;20084;-69
2022/02/05 11:46:07;;;;;;;30.90;19.13;;;;;;;5.02;45.47;94910.94;5109472;27;20032;-69
2022/02/05 11:48:36;;;;;;;28.08;18.25;;;;;;;5.04;45.84;94911.66;5110148;28;20051;-69
2022/02/05 11:51:21;;;;;;;26.95;17.10;;;;;;;5.07;46.00;94907.16;5109469;28;20028;-69
2022/02/05 11:53:56;;;;;;;33.25;19.17;;;;;;;5.09;45.54;94907.06;5108256;28;20455;-69
2022/02/05 11:59:26;;;;;;;30.20;20.55;;;;;;;5.09;46.57;94891.59;5089586;28;20118;-68
2022/02/05 12:02:14;;;;;;;37.88;20.15;;;;;;;5.02;46.23;94887.75;5110986;28;20077;-69
2022/02/05 12:04:39;;;;;;;34.67;19.70;;;;;;;5.07;46.42;94883.13;5109685;28;20036;-69
2022/02/05 12:07:07;;;;;;;31.75;23.55;;;;;;;5.07;46.40;94886.56;5093094;28;20123;-69
2022/02/05 12:09:43;;;;;;;36.78;23.95;;;;;;;5.09;46.92;94876.97;5091205;28;20028;-69
2022/02/05 12:12:24;;;;;;;44.47;27.98;;;;;;;5.15;46.77;94884.34;5075841;28;20501;-69
2022/02/05 12:15:08;;;;;;;68.85;33.10;;;;;;;5.15;47.40;94873.19;5101941;28;20059;-69
2022/02/05 12:20:31;;;;;;;55.53;34.33;;;;;;;5.26;47.43;94877.72;5109793;28;20402;-69
2022/02/05 12:23:23;;;;;;;55.15;34.42;;;;;;;5.27;47.52;94875.06;5105374;28;20492;-69
2022/02/05 12:26:00;;;;;;;60.78;35.80;;;;;;;5.33;47.72;94879.81;5110970;28;20035;-69
2022/02/05 12:28:28;;;;;;;47.88;29.02;;;;;;;5.36;49.44;94879.63;5109152;27;20039;-69
2022/02/05 12:30:54;;;;;;;42.75;27.63;;;;;;;5.38;48.27;94872.66;5101070;28;20028;-69
2022/02/05 12:33:20;;;;;;;41.05;24.98;;;;;;;5.38;47.16;94870.06;5109345;28;20031;-69
2022/02/05 12:35:50;;;;;;;40.13;23.00;;;;;;;5.49;48.92;94864.25;5100794;28;20024;-69
2022/02/05 12:38:16;;;;;;;74.53;47.37;;;;;;;5.53;49.86;94863.13;5086176;28;20024;-69
2022/02/05 12:40:43;;;;;;;52.10;33.63;;;;;;;5.67;49.53;94864.03;5094431;28;20396;-69
2022/02/05 12:43:09;;;;;;;48.78;33.22;;;;;;;5.71;49.22;94844.84;5110443;28;20032;-69
2022/02/05 12:45:45;;;;;;;54.65;34.33;;;;;;;5.87;48.45;94865.34;5108950;28;20028;-69
2022/02/05 12:48:11;;;;;;;41.28;28.83;;;;;;;5.95;48.25;94863.97;5107184;28;20028;-69
2022/02/05 12:50:37;;;;;;;48.80;31.65;;;;;;;6.05;47.82;94879.69;5094412;28;20474;-67
2022/02/05 12:53:06;;;;;;;57.33;36.50;;;;;;;6.03;48.11;94858.31;5111861;28;20466;-67
2022/02/05 12:55:34;;;;;;;55.58;35.78;;;;;;;6.15;48.36;94870.41;5109294;28;20031;-69
2022/02/05 12:58:00;;;;;;;53.67;32.50;;;;;;;6.22;47.96;94861.38;5110575;28;20031;-70
2022/02/05 13:00:26;;;;;;;48.20;31.33;;;;;;;6.25;47.73;94856.00;5074032;28;20462;-69
2022/02/05 13:02:51;;;;;;;44.70;27.05;;;;;;;6.33;47.25;94859.84;5095473;28;20077;-69
2022/02/05 13:05:17;;;;;;;39.63;25.92;;;;;;;6.33;47.08;94862.44;5092804;28;20036;-69
2022/02/05 13:07:43;;;;;;;47.03;27.48;;;;;;;6.31;48.20;94865.09;5091302;28;20028;-69
2022/02/05 13:10:09;;;;;;;44.65;28.30;;;;;;;6.38;49.56;94863.78;5074387;28;20044;-69
2022/02/05 13:12:41;;;;;;;41.30;28.25;;;;;;;6.40;51.09;94861.91;5092466;28;20027;-69
2022/02/05 13:15:28;;;;;;;52.10;36.28;;;;;;;6.40;47.91;94858.50;5092705;27;20039;-69
2022/02/05 13:36:46;;;;;;;34.17;22.60;;;;;;;6.52;49.18;94857.72;5099448;27;20054;-69
2022/02/05 13:42:00;;;;;;;25.77;16.98;;;;;;;6.29;50.28;94846.31;5132610;27;20456;-70
2022/02/05 13:44:29;;;;;;;23.90;16.88;;;;;;;6.35;51.69;94855.41;5131802;27;20019;-69
2022/02/05 13:47:05;;;;;;;25.70;17.98;;;;;;;6.27;52.38;94850.75;5108267;27;20089;-69
2022/02/05 13:49:31;;;;;;;23.13;17.13;;;;;;;6.25;52.03;94865.50;5113031;27;20032;-69
2022/02/05 13:52:13;;;;;;;23.35;17.17;;;;;;;6.29;51.27;94876.44;5105804;27;20039;-69
2022/02/05 13:54:41;;;;;;;22.02;15.40;;;;;;;6.31;52.18;94872.00;5115016;27;20027;-67
2022/02/05 13:57:09;;;;;;;21.50;13.45;;;;;;;6.38;51.38;94886.16;5079909;27;20031;-68
2022/02/05 13:59:34;;;;;;;26.25;16.60;;;;;;;6.41;51.19;94880.81;5104116;27;20038;-69
2022/02/05 14:02:19;;;;;;;19.13;12.20;;;;;;;6.57;49.74;94884.03;5114126;27;20035;-70
2022/02/05 14:05:11;;;;;;;21.13;13.18;;;;;;;6.54;50.73;94873.91;5073497;27;20112;-69
2022/02/05 14:07:43;;;;;;;27.50;17.63;;;;;;;6.62;48.38;94892.28;5099175;27;20037;-71
2022/02/05 14:10:10;;;;;;;22.83;14.95;;;;;;;6.65;50.15;94875.78;5117334;27;20031;-69
2022/02/05 14:12:36;;;;;;;21.08;13.52;;;;;;;6.61;50.98;94887.25;5127683;27;20027;-69
2022/02/05 14:15:03;;;;;;;22.60;11.60;;;;;;;6.62;48.77;94886.31;5089445;28;20467;-69
2022/02/05 14:17:28;;;;;;;10.82;6.22;;;;;;;6.63;48.70;94885.38;5092563;28;20486;-70
2022/02/05 14:20:10;;;;;;;13.02;8.43;;;;;;;6.67;50.37;94882.50;5086268;27;20088;-69
2022/02/05 14:22:38;;;;;;;13.15;7.97;;;;;;;6.72;49.76;94884.78;5094978;28;20041;-69
2022/02/05 14:25:17;;;;;;;16.58;9.07;;;;;;;6.68;51.07;94886.72;5122003;27;20064;-67
2022/02/05 14:28:06;;;;;;;14.02;8.95;;;;;;;6.63;50.77;94878.47;5105066;28;20044;-67
2022/02/05 14:30:33;;;;;;;14.18;8.68;;;;;;;6.59;50.89;94871.84;5126058;27;20084;-67
2022/02/05 14:33:02;;;;;;;18.38;13.93;;;;;;;6.56;51.15;94881.56;5100621;27;20050;-67
2022/02/05 14:40:45;;;;;;;8.65;5.93;;;;;;;6.14;54.78;94886.81;5111899;28;20220;-69
2022/02/05 14:43:12;;;;;;;11.40;6.82;;;;;;;6.07;54.86;94874.41;5096090;28;20081;-69
2022/02/05 14:45:37;;;;;;;11.85;6.60;;;;;;;5.91;54.96;94877.13;5092183;28;20039;-69
2022/02/05 14:48:03;;;;;;;10.70;5.40;;;;;;;5.86;55.61;94876.59;5087279;28;20471;-69
2022/02/05 14:50:29;;;;;;;6.03;3.85;;;;;;;5.80;56.49;94886.38;5087023;28;20170;-69
2022/02/05 14:52:57;;;;;;;5.43;3.50;;;;;;;5.70;56.82;94884.44;5085562;28;20024;-71